Terminal Aerodrome Forecast
Issued by NWS Lake Charles, LA

Home | Current Version | Previous Version | Text Only | Print | Product List | Glossary On
Versions: 1 2 3 4 5 6 7 8 9 10 11 12 13 14 15 16 17 18 19
000
FTUS44 KLCH 281405 AAA
TAFARA
TAF AMD
KARA 281405Z 2814/2912 17006KT P6SM SCT015 SCT035
     FM281600 17009KT P6SM BKN050
     FM282100 18012KT P6SM BKN250
     FM290200 15011KT P6SM OVC015=

USA.gov is the U.S. government's official web portal to all federal, state and local government web resources and services.